地図

経路データ

SID SEASON NUMBER BASIN SUBBASIN NAME ISO_TIME NATURE LAT LON WMO_WIND WMO_PRES WMO_AGENCY TRACK_TYPE DIST2LAND LANDFALL IFLAG USA_AGENCY USA_ATCF_ID USA_LAT USA_LON USA_RECORD USA_STATUS USA_WIND USA_PRES USA_SSHS USA_R34_NE USA_R34_SE USA_R34_SW USA_R34_NW USA_R50_NE USA_R50_SE USA_R50_SW USA_R50_NW USA_R64_NE USA_R64_SE USA_R64_SW USA_R64_NW USA_POCI USA_ROCI USA_RMW USA_EYE TOKYO_LAT TOKYO_LON TOKYO_GRADE TOKYO_WIND TOKYO_PRES TOKYO_R50_DIR TOKYO_R50_LONG TOKYO_R50_SHORT TOKYO_R30_DIR TOKYO_R30_LONG TOKYO_R30_SHORT TOKYO_LAND CMA_LAT CMA_LON CMA_CAT CMA_WIND CMA_PRES HKO_LAT HKO_LON HKO_CAT HKO_WIND HKO_PRES NEWDELHI_LAT NEWDELHI_LON NEWDELHI_GRADE NEWDELHI_WIND NEWDELHI_PRES NEWDELHI_CI NEWDELHI_DP NEWDELHI_POCI REUNION_LAT REUNION_LON REUNION_TYPE REUNION_WIND REUNION_PRES REUNION_TNUM REUNION_CI REUNION_RMW REUNION_R34_NE REUNION_R34_SE REUNION_R34_SW REUNION_R34_NW REUNION_R50_NE REUNION_R50_SE REUNION_R50_SW REUNION_R50_NW REUNION_R64_NE REUNION_R64_SE REUNION_R64_SW REUNION_R64_NW BOM_LAT BOM_LON BOM_TYPE BOM_WIND BOM_PRES BOM_TNUM BOM_CI BOM_RMW BOM_R34_NE BOM_R34_SE BOM_R34_SW BOM_R34_NW BOM_R50_NE BOM_R50_SE BOM_R50_SW BOM_R50_NW BOM_R64_NE BOM_R64_SE BOM_R64_SW BOM_R64_NW BOM_ROCI BOM_POCI BOM_EYE BOM_POS_METHOD BOM_PRES_METHOD NADI_LAT NADI_LON NADI_CAT NADI_WIND NADI_PRES WELLINGTON_LAT WELLINGTON_LON WELLINGTON_WIND WELLINGTON_PRES DS824_LAT DS824_LON DS824_STAGE DS824_WIND DS824_PRES TD9636_LAT TD9636_LON TD9636_STAGE TD9636_WIND TD9636_PRES TD9635_LAT TD9635_LON TD9635_WIND TD9635_PRES TD9635_ROCI NEUMANN_LAT NEUMANN_LON NEUMANN_CLASS NEUMANN_WIND NEUMANN_PRES MLC_LAT MLC_LON MLC_CLASS MLC_WIND MLC_PRES USA_GUST BOM_GUST BOM_GUST_PER REUNION_GUST REUNION_GUST_PER USA_SEAHGT USA_SEARAD_NE USA_SEARAD_SE USA_SEARAD_SW USA_SEARAD_NW STORM_SPEED STORM_DIR
1946360S12053 1947 80 SI MM NOT_NAMED 1946-12-26 00:00:00 NR -11.8000 53.4000 reunion main 403 403 _____O________ -1 -11.8000 53.4000 99 9.90000 1 75
1946360S12053 1947 80 SI MM NOT_NAMED 1946-12-26 03:00:00 NR -11.7821 53.4710 main 413 413 _____P________ -1 -11.7821 53.4710 99 1 75
1946360S12053 1947 80 SI MM NOT_NAMED 1946-12-26 06:00:00 NR -11.7671 53.5304 main 413 413 _____P________ -1 -11.7671 53.5304 99 1 76
1946360S12053 1947 80 SI MM NOT_NAMED 1946-12-26 09:00:00 NR -11.7579 53.5668 main 423 407 _____P________ -1 -11.7579 53.5668 99 1 303
1946360S12053 1947 80 SI MM NOT_NAMED 1946-12-26 12:00:00 TS -11.6900 53.4107 main 407 397 O____P___OO___ jtwc_sh SH051947 -11.6000 53.2000 -1 -11.7574 53.5687 99 -11.6000 53.2000 TC -11.6000 53.2000 1 2 285
1946360S12053 1947 80 SI MM NOT_NAMED 1946-12-26 15:00:00 TS -11.6953 53.3362 main 397 387 P____P___PP___ SH051947 -11.6525 53.2425 -1 -11.7685 53.5245 99 -11.6525 53.2425 TC -11.6342 53.1468 1 2 259
1946360S12053 1947 80 SI MM NOT_NAMED 1946-12-26 18:00:00 TS -11.7231 53.2374 main 387 372 O____P___OP___ jtwc_sh SH051947 -11.7000 53.2000 -1 -11.7941 53.4227 99 -11.7000 53.2000 TC -11.6748 53.0649 1 3 257
1946360S12053 1947 80 SI MM NOT_NAMED 1946-12-26 21:00:00 TS -11.7625 53.0493 main 362 342 P____P___PP___ SH051947 -11.7425 53.0100 -1 -11.8370 53.2518 99 -11.7425 53.0100 TC -11.7279 52.9256 1 5 257
1946360S12053 1947 80 SI MM NOT_NAMED 1946-12-27 00:00:00 TS -11.8250 52.7750 reunion main 342 298 O____O___OO___ jtwc_sh SH051947 -11.8000 52.7000 -1 -11.9000 53.0000 99 9.90000 -11.8000 52.7000 TC 25 -11.8000 52.7000 1 6 256
1946360S12053 1947 80 SI MM NOT_NAMED 1946-12-27 03:00:00 TS -11.9126 52.4225 main 298 254 P____P___PP___ SH051947 -11.8850 52.3300 -1 -11.9848 52.6609 99 -11.8850 52.3300 TC 25 -11.8955 52.3693 1 8 255
1946360S12053 1947 80 SI MM NOT_NAMED 1946-12-27 06:00:00 TS -12.0256 52.0008 main 254 205 O____P___OP___ jtwc_sh SH051947 -12.0000 51.9000 -1 -12.0898 52.2483 99 -12.0000 51.9000 TC 25 -12.0127 51.9549 1 9 254
1946360S12053 1947 80 SI MM NOT_NAMED 1946-12-27 09:00:00 TS -12.1614 51.5498 main 195 152 P____P___PP___ SH051947 -12.1424 51.4650 -1 -12.2121 51.7812 99 -12.1424 51.4650 TC 25 -12.1485 51.4880 1 10 253
1946360S12053 1947 80 SI MM NOT_NAMED 1946-12-27 12:00:00 TS -12.3123 51.0697 main 152 94 O____P___OO___ jtwc_sh SH051947 -12.3000 51.0000 -1 -12.3494 51.2789 99 -12.3000 51.0000 TC 25 -12.3000 51.0000 1 10 253
1946360S12053 1947 80 SI MM NOT_NAMED 1946-12-27 15:00:00 TS -12.4622 50.5678 main 94 46 P____P___PP___ SH051947 -12.4425 50.4999 -1 -12.4990 50.7603 99 -12.4425 50.4999 TC 25 -12.4649 50.5111 1 10 252
1946360S12053 1947 80 SI MM NOT_NAMED 1946-12-27 18:00:00 TS -12.6254 50.0644 main 46 0 O____P___OP___ jtwc_sh SH051947 -12.6000 50.0000 -1 -12.6588 50.2448 99 -12.6000 50.0000 TC 25 -12.6428 50.0128 1 10 250
1946360S12053 1947 80 SI MM NOT_NAMED 1946-12-27 21:00:00 TS -12.8127 49.5849 main 0 0 P____P___PP___ SH051947 -12.8000 49.5275 -1 -12.8264 49.7516 99 -12.8000 49.5275 TC 25 -12.8243 49.5330 1 10 247
1946360S12053 1947 80 SI MM NOT_NAMED 1946-12-28 00:00:00 TS -13.0000 49.1500 reunion main 0 0 O____O___OO___ jtwc_sh SH051947 -13.0000 49.1000 -1 -13.0000 49.3000 99 9.90000 -13.0000 49.1000 TC 25 -13.0000 49.1000 1 9 246
1946360S12053 1947 80 SI MM NOT_NAMED 1946-12-28 03:00:00 TS -13.1582 48.7822 main 0 0 P____P___PP___ SH051947 -13.1574 48.7199 -1 -13.1776 48.9478 99 -13.1574 48.7199 TC 25 -13.1405 48.7412 1 7 245
1946360S12053 1947 80 SI MM NOT_NAMED 1946-12-28 06:00:00 TS -13.3105 48.4649 main 22 15 O____P___OP___ jtwc_sh SH051947 -13.3000 48.4000 -1 -13.3651 48.6276 99 -13.3000 48.4000 TC 25 -13.2770 48.4320 1 7 242
1946360S12053 1947 80 SI MM NOT_NAMED 1946-12-28 09:00:00 TS -13.4635 48.1907 main 15 0 P____P___PP___ SH051947 -13.4349 48.1349 -1 -13.5590 48.3361 99 -13.4349 48.1349 TC 25 -13.4250 48.1568 1 6 237
1946360S12053 1947 80 SI MM NOT_NAMED 1946-12-28 12:00:00 TS -13.6389 47.9426 main 10 0 O____P___OO___ jtwc_sh SH051947 -13.6000 47.9000 -1 -13.7557 48.0702 99 -13.6000 47.9000 TC 25 -13.6000 47.9000 1 6 231
1946360S12053 1947 80 SI MM NOT_NAMED 1946-12-28 15:00:00 TS -13.8648 47.6866 main 21 21 P____P___PP___ SH051947 -13.8350 47.6500 -1 -13.9518 47.8268 99 -13.8350 47.6500 TC 25 -13.8374 47.6196 1 7 226
1946360S12053 1947 80 SI MM NOT_NAMED 1946-12-28 18:00:00 TS -14.1109 47.4395 main 46 39 O____P___OP___ jtwc_sh SH051947 -14.1000 47.4000 -1 -14.1436 47.6027 99 -14.1000 47.4000 TC 25 -14.1000 47.3553 1 7 224
1946360S12053 1947 80 SI MM NOT_NAMED 1946-12-28 21:00:00 TS -14.3550 47.1945 main 49 46 P____P___PP___ SH051947 -14.3650 47.1350 -1 -14.3276 47.3948 99 -14.3650 47.1350 TC 25 -14.3625 47.1133 1 6 224
1946360S12053 1947 80 SI MM NOT_NAMED 1946-12-29 00:00:00 TS -14.5750 46.9750 reunion main 46 46 O____O___OO___ jtwc_sh SH051947 -14.6000 46.9000 -1 -14.5000 47.2000 99 9.90000 -14.6000 46.9000 TC 25 -14.6000 46.9000 1 5 225
1946360S12053 1947 80 SI MM NOT_NAMED 1946-12-29 03:00:00 TS -14.7435 46.7982 main 58 46 P____P___PP___ SH051947 -14.7650 46.7349 -1 -14.6574 46.9980 99 -14.7650 46.7349 TC 25 -14.7867 46.7250 1 4 225
1946360S12053 1947 80 SI MM NOT_NAMED 1946-12-29 06:00:00 TS -14.8876 46.6475 main 49 39 O____P___OP___ jtwc_sh SH051947 -14.9000 46.6000 -1 -14.8056 46.8128 99 -14.9000 46.6000 TC 25 -14.9448 46.5772 1 4 225
1946360S12053 1947 80 SI MM NOT_NAMED 1946-12-29 09:00:00 TS -15.0350 46.4956 main 46 31 P____P___PP___ SH051947 -15.0575 46.4500 -1 -14.9445 46.6417 99 -15.0575 46.4500 TC 25 -15.0805 46.4407 1 4 226
1946360S12053 1947 80 SI MM NOT_NAMED 1946-12-29 12:00:00 TS -15.1686 46.3455 main 39 39 O____P___OO___ jtwc_sh SH051947 -15.2000 46.3000 -1 -15.0742 46.4818 99 -15.2000 46.3000 TC 25 -15.2000 46.3000 1 4 230
1946360S12053 1947 80 SI MM NOT_NAMED 1946-12-29 15:00:00 TS -15.2796 46.1970 main 39 39 P____P___PP___ SH051947 -15.3075 46.1575 -1 -15.1946 46.3305 99 -15.3075 46.1575 TC 25 -15.3089 46.1427 1 4 234
1946360S12053 1947 80 SI MM NOT_NAMED 1946-12-29 18:00:00 TS -15.3734 46.0500 main 39 35 O____P___OP___ jtwc_sh SH051947 -15.4000 46.0000 -1 -15.3057 46.1849 99 -15.4000 46.0000 TC 25 -15.4102 45.9702 1 3 238
1946360S12053 1947 80 SI MM NOT_NAMED 1946-12-29 21:00:00 TS -15.4633 45.8985 main 35 35 P____P___PP___ SH051947 -15.4976 45.8101 -1 -15.4076 46.0423 99 -15.4976 45.8101 TC 25 -15.5064 45.7877 1 3 238
1946360S12053 1947 80 SI MM NOT_NAMED 1946-12-30 00:00:00 TS -15.5429 45.7714 reunion main 39 30 O____O___OO___ jtwc_sh SH051947 -15.6000 45.6000 -1 -15.5000 45.9000 99 9.90000 -15.6000 45.6000 TC 25 -15.6000 45.6000 1 2 229
1946360S12053 1947 80 SI MM NOT_NAMED 1946-12-30 03:00:00 NR -15.5832 45.7556 main 30 22 _____P________ SH051947 -1 -15.5832 45.7556 99 TC 1 2 234
1946360S12053 1947 80 SI MM NOT_NAMED 1946-12-30 06:00:00 NR -15.6582 45.6090 main 22 22 _____P________ -1 -15.6582 45.6090 99 1 3 243
1946360S12053 1947 80 SI MM NOT_NAMED 1946-12-30 09:00:00 NR -15.7261 45.4605 main 24 22 _____P________ -1 -15.7261 45.4605 99 1 3 246
1946360S12053 1947 80 SI MM NOT_NAMED 1946-12-30 12:00:00 NR -15.7881 45.3103 main 24 22 _____P________ -1 -15.7881 45.3103 99 3 248
1946360S12053 1947 80 SI MM NOT_NAMED 1946-12-30 15:00:00 NR -15.8453 45.1589 main 22 11 _____P________ -1 -15.8453 45.1589 99 3 249
1946360S12053 1947 80 SI MM NOT_NAMED 1946-12-30 18:00:00 NR -15.8989 45.0065 main 15 15 _____P________ -1 -15.8989 45.0065 99 3 250
1946360S12053 1947 80 SI MM NOT_NAMED 1946-12-30 21:00:00 NR -15.9501 44.8534 main 15 15 _____P________ -1 -15.9501 44.8534 99 3 251
1946360S12053 1947 80 SI MM NOT_NAMED 1946-12-31 00:00:00 NR -16.0000 44.7000 reunion main 30 _____O________ -1 -16.0000 44.7000 99 9.90000 3 252

IBTrACS Databaseについて

本データベースは、米国NOAAが公開する1842年以降の世界の熱帯低気圧のベストトラックデータアーカイブInternational Best Track Archive for Climate Stewardship (IBTrACS)を、ウェブで閲覧しやすい形式に変換したものです。

最終更新日:2021-10-21